createdAt,value
2018-09-21T00:01:10.191Z,100792.87
2018-09-21T00:03:38.484Z,100788.03
2018-09-21T00:06:06.715Z,100788.48
2018-09-21T00:08:34.856Z,100788.03
2018-09-21T00:11:02.970Z,100785.84
2018-09-21T00:13:31.153Z,100788.47
2018-09-21T00:15:59.275Z,100784.08
2018-09-21T00:18:27.423Z,100786.27
2018-09-21T00:20:55.559Z,100776.17
2018-09-21T00:23:23.792Z,100777.06
2018-09-21T00:25:51.951Z,100781.00
2018-09-21T00:28:20.322Z,100771.79
2018-09-21T00:30:49.177Z,100764.33
2018-09-21T00:33:17.384Z,100759.06
2018-09-21T00:35:45.585Z,100764.33
2018-09-21T00:38:14.307Z,100759.95
2018-09-21T00:40:42.486Z,100759.08
2018-09-21T00:43:10.623Z,100762.58
2018-09-21T00:45:38.796Z,100753.35
2018-09-21T00:48:06.985Z,100755.98
2018-09-21T00:50:35.287Z,100754.25
2018-09-21T00:53:03.529Z,100747.22
2018-09-21T00:55:31.697Z,100745.04
2018-09-21T00:57:59.776Z,100744.14
2018-09-21T01:00:27.949Z,100739.75
2018-09-21T01:02:56.729Z,100738.00
2018-09-21T01:05:24.933Z,100733.19
2018-09-21T01:07:53.151Z,100737.98
2018-09-21T01:10:21.359Z,100732.27
2018-09-21T01:12:49.766Z,100729.63
2018-09-21T01:15:18.240Z,100725.70
2018-09-21T01:17:47.083Z,100726.13
2018-09-21T01:20:15.292Z,100722.59
2018-09-21T01:22:43.464Z,100717.34
2018-09-21T01:25:11.674Z,100730.06
2018-09-21T01:27:39.981Z,100726.55
2018-09-21T01:30:08.223Z,100716.89
2018-09-21T01:32:36.410Z,100719.08
2018-09-21T01:35:04.671Z,100713.83
2018-09-21T01:37:32.909Z,100714.70
2018-09-21T01:40:01.203Z,100710.30
2018-09-21T01:42:29.435Z,100714.67
2018-09-21T01:44:57.684Z,100708.55
2018-09-21T01:47:25.901Z,100708.08
2018-09-21T01:49:54.181Z,100707.63
2018-09-21T01:52:22.454Z,100691.02
2018-09-21T01:54:51.349Z,100690.58
2018-09-21T01:57:19.783Z,100696.23
2018-09-21T01:59:48.105Z,100689.70
2018-09-21T02:02:16.329Z,100688.36
2018-09-21T02:04:44.484Z,100685.77
2018-09-21T02:07:12.997Z,100698.45
2018-09-21T02:09:41.410Z,100703.71
2018-09-21T02:12:09.591Z,100697.16
2018-09-21T02:14:37.721Z,100691.89
2018-09-21T02:17:05.880Z,100687.49
2018-09-21T02:19:34.243Z,100681.81
2018-09-21T02:22:02.503Z,100676.98
2018-09-21T02:24:30.689Z,100670.41
2018-09-21T02:26:59.787Z,100668.66
2018-09-21T02:29:27.992Z,100666.44
2018-09-21T02:31:56.211Z,100677.85
2018-09-21T02:34:24.724Z,100673.89
2018-09-21T02:36:53.724Z,100665.12
2018-09-21T02:39:21.891Z,100665.59
2018-09-21T02:41:50.036Z,100667.77
2018-09-21T02:44:19.461Z,100663.81
2018-09-21T02:46:47.665Z,100652.86
2018-09-21T02:49:15.901Z,100653.73
2018-09-21T02:51:44.099Z,100651.55
2018-09-21T02:54:12.424Z,100651.99
2018-09-21T02:56:41.353Z,100644.09
2018-09-21T02:59:09.573Z,100635.32
2018-09-21T03:01:37.730Z,100632.70
2018-09-21T03:04:06.183Z,100642.78
2018-09-21T03:09:01.991Z,100623.49
2018-09-21T03:11:30.184Z,100626.10
2018-09-21T03:13:58.375Z,100621.70
2018-09-21T03:16:26.748Z,100621.28
2018-09-21T03:18:54.951Z,100622.16
2018-09-21T03:21:23.201Z,100619.53
2018-09-21T03:23:51.607Z,100616.45
2018-09-21T03:26:19.873Z,100613.41
2018-09-21T03:28:48.061Z,100613.41
2018-09-21T03:31:16.285Z,100598.91
2018-09-21T03:33:44.556Z,100595.84
2018-09-21T03:36:12.848Z,100601.12
2018-09-21T03:38:41.056Z,100599.80
2018-09-21T03:41:09.353Z,100600.66
2018-09-21T03:43:38.485Z,100604.18
2018-09-21T03:46:06.747Z,100595.39
2018-09-21T03:48:35.019Z,100591.03
2018-09-21T03:51:03.206Z,100591.02
2018-09-21T03:53:31.559Z,100584.89
2018-09-21T03:55:59.760Z,100578.75
2018-09-21T03:58:27.941Z,100580.05
2018-09-21T04:00:56.339Z,100578.75
2018-09-21T04:03:25.771Z,100571.29
2018-09-21T04:05:53.987Z,100574.34
2018-09-21T04:08:22.222Z,100569.54
2018-09-21T04:10:50.669Z,100574.38
2018-09-21T04:13:18.821Z,100565.59
2018-09-21T04:15:47.172Z,100569.53
2018-09-21T04:18:16.044Z,100568.67
2018-09-21T04:20:44.443Z,100561.20
2018-09-21T04:23:12.773Z,100559.45
2018-09-21T04:25:41.559Z,100555.06
2018-09-21T04:28:09.768Z,100551.57
2018-09-21T04:30:38.670Z,100550.70
2018-09-21T04:33:06.796Z,100549.81
2018-09-21T04:35:35.072Z,100545.41
2018-09-21T04:38:03.260Z,100547.15
2018-09-21T04:40:31.531Z,100545.83
2018-09-21T04:42:59.975Z,100540.12
2018-09-21T04:45:33.328Z,100537.92
2018-09-21T04:48:06.176Z,100532.68
2018-09-21T04:50:34.655Z,100527.84
2018-09-21T04:53:02.816Z,100530.50
2018-09-21T04:55:31.219Z,100532.23
2018-09-21T04:57:59.385Z,100525.22
2018-09-21T05:00:27.672Z,100535.33
2018-09-21T05:02:55.837Z,100529.59
2018-09-21T05:05:25.490Z,100526.55
2018-09-21T05:07:56.262Z,100514.73
2018-09-21T05:10:27.175Z,100519.97
2018-09-21T05:12:55.484Z,100512.53
2018-09-21T05:15:23.677Z,100509.00
2018-09-21T05:17:51.852Z,100505.44
2018-09-21T05:20:28.663Z,100510.29
2018-09-21T05:22:56.971Z,100501.50
2018-09-21T05:25:25.178Z,100500.12
2018-09-21T05:27:53.494Z,100498.31
2018-09-21T05:30:21.740Z,100492.58
2018-09-21T05:32:50.497Z,100495.17
2018-09-21T05:35:19.664Z,100493.29
2018-09-21T05:37:47.916Z,100495.81
2018-09-21T05:40:16.150Z,100490.54
2018-09-21T05:42:44.467Z,100493.59
2018-09-21T05:45:12.626Z,100492.27
2018-09-21T05:47:40.915Z,100486.09
2018-09-21T05:50:09.205Z,100489.83
2018-09-21T05:52:37.539Z,100481.02
2018-09-21T05:55:06.033Z,100481.88
2018-09-21T05:57:39.097Z,100481.30
2018-09-21T06:00:07.392Z,100482.48
2018-09-21T06:02:35.709Z,100479.75
2018-09-21T06:05:05.322Z,100472.20
2018-09-21T06:07:34.105Z,100474.35
2018-09-21T06:10:02.843Z,100477.30
2018-09-21T06:12:31.110Z,100472.77
2018-09-21T06:14:59.455Z,100476.31
2018-09-21T06:17:28.862Z,100471.96
2018-09-21T06:19:57.147Z,100476.55
2018-09-21T06:22:29.613Z,100472.07
2018-09-21T06:24:58.365Z,100467.99
2018-09-21T06:27:27.627Z,100456.30
2018-09-21T06:29:55.762Z,100452.22
2018-09-21T06:32:24.313Z,100456.17
2018-09-21T06:34:56.553Z,100450.70
2018-09-21T06:37:25.419Z,100447.41
2018-09-21T06:39:54.111Z,100451.54
2018-09-21T06:42:22.678Z,100444.13
2018-09-21T06:44:51.233Z,100435.71
2018-09-21T06:47:19.622Z,100437.07
2018-09-21T06:49:47.845Z,100441.09
2018-09-21T06:52:16.268Z,100436.97
2018-09-21T06:54:44.468Z,100433.19
2018-09-21T06:57:12.785Z,100430.58
2018-09-21T06:59:41.497Z,100439.73
2018-09-21T07:02:09.661Z,100432.93
2018-09-21T07:04:38.891Z,100425.26
2018-09-21T07:07:07.213Z,100420.72
2018-09-21T07:12:02.747Z,100421.77
2018-09-21T07:14:30.949Z,100416.86
2018-09-21T07:16:59.220Z,100417.20
2018-09-21T07:19:27.477Z,100407.27
2018-09-21T07:21:56.585Z,100401.81
2018-09-21T07:24:24.878Z,100391.69
2018-09-21T07:26:53.137Z,100392.97
2018-09-21T07:29:21.344Z,100386.75
2018-09-21T07:31:49.542Z,100383.05
2018-09-21T07:34:17.752Z,100374.19
2018-09-21T07:36:46.947Z,100372.56
2018-09-21T07:39:15.159Z,100370.98
2018-09-21T07:41:43.300Z,100364.72
2018-09-21T07:44:11.839Z,100356.95
2018-09-21T07:46:40.097Z,100352.23
2018-09-21T07:49:08.354Z,100343.44
2018-09-21T07:51:36.623Z,100345.32
2018-09-21T07:54:05.424Z,100334.91
2018-09-21T07:56:33.701Z,100347.00
2018-09-21T07:59:01.943Z,100360.42
2018-09-21T08:01:30.185Z,100356.28
2018-09-21T08:03:58.833Z,100358.80
2018-09-21T08:06:27.226Z,100351.59
2018-09-21T08:08:55.387Z,100354.84
2018-09-21T08:11:23.577Z,100343.07
2018-09-21T08:13:51.880Z,100339.63
2018-09-21T08:16:20.672Z,100336.62
2018-09-21T08:18:49.058Z,100326.50
2018-09-21T08:21:17.203Z,100325.61
2018-09-21T08:23:45.415Z,100323.75
2018-09-21T08:26:13.665Z,100310.30
2018-09-21T08:28:41.831Z,100309.23
2018-09-21T08:31:10.602Z,100296.82
2018-09-21T08:33:38.776Z,100301.03
2018-09-21T08:36:07.172Z,100295.64
2018-09-21T08:38:35.446Z,100299.45
2018-09-21T08:41:03.595Z,100297.98
2018-09-21T08:43:31.976Z,100299.61
2018-09-21T08:46:00.127Z,100299.92
2018-09-21T08:48:28.304Z,100294.68
2018-09-21T08:50:56.517Z,100292.38
2018-09-21T08:53:24.759Z,100294.24
2018-09-21T08:55:52.943Z,100289.68
2018-09-21T08:58:25.647Z,100286.36
2018-09-21T09:00:53.906Z,100282.69
2018-09-21T09:03:22.140Z,100273.78
2018-09-21T09:05:52.849Z,100272.48
2018-09-21T09:08:22.416Z,100269.09
2018-09-21T09:10:50.573Z,100271.44
2018-09-21T09:13:19.430Z,100265.41
2018-09-21T09:15:48.088Z,100260.20
2018-09-21T09:18:16.329Z,100255.08
2018-09-21T09:20:47.791Z,100247.08
2018-09-21T09:23:16.083Z,100239.25
2018-09-21T09:25:44.148Z,100232.66
2018-09-21T09:28:12.383Z,100227.97
2018-09-21T09:30:40.738Z,100234.36
2018-09-21T09:33:08.989Z,100232.81
2018-09-21T09:35:37.127Z,100236.16
2018-09-21T09:38:05.351Z,100227.47
2018-09-21T09:40:33.595Z,100223.22
2018-09-21T09:43:02.621Z,100213.20
2018-09-21T09:45:30.682Z,100208.92
2018-09-21T09:47:59.005Z,100203.41
2018-09-21T09:50:27.242Z,100204.95
2018-09-21T09:52:55.497Z,100197.77
2018-09-21T09:55:24.570Z,100189.67
2018-09-21T09:57:52.795Z,100174.84
2018-09-21T10:00:26.507Z,100179.81
2018-09-21T10:02:55.297Z,100176.34
2018-09-21T10:05:23.845Z,100167.70
2018-09-21T10:07:52.030Z,100166.30
2018-09-21T10:10:20.233Z,100151.53
2018-09-21T10:12:48.449Z,100147.33
2018-09-21T10:15:18.495Z,100144.89
2018-09-21T10:17:46.821Z,100138.70
2018-09-21T10:20:15.274Z,100136.36
2018-09-21T10:22:43.497Z,100131.09
2018-09-21T10:25:11.793Z,100128.05
2018-09-21T10:27:40.006Z,100120.56
2018-09-21T10:30:08.257Z,100116.30
2018-09-21T10:32:36.537Z,100098.84
2018-09-21T10:35:05.062Z,100095.70
2018-09-21T10:37:33.187Z,100093.16
2018-09-21T10:40:01.761Z,100097.58
2018-09-21T10:42:29.955Z,100094.66
2018-09-21T10:44:58.201Z,100086.50
2018-09-21T10:47:26.481Z,100089.00
2018-09-21T10:49:54.691Z,100082.13
2018-09-21T10:52:23.097Z,100080.49
2018-09-21T10:54:51.326Z,100067.13
2018-09-21T10:59:46.719Z,100068.67
2018-09-21T11:02:14.953Z,100062.91
2018-09-21T11:04:43.185Z,100063.09
2018-09-21T11:07:11.439Z,100051.46
2018-09-21T11:09:39.874Z,100050.91
2018-09-21T11:12:08.070Z,100049.34
2018-09-21T11:14:36.439Z,100046.97
2018-09-21T11:17:07.661Z,100033.05
2018-09-21T11:19:35.991Z,100028.66
2018-09-21T11:22:04.505Z,100026.38
2018-09-21T11:24:32.645Z,100010.37
2018-09-21T11:27:00.987Z,100002.69
2018-09-21T11:29:29.185Z,99998.67
2018-09-21T11:31:57.455Z,100000.35
2018-09-21T11:34:25.694Z,99995.85
2018-09-21T11:36:55.275Z,99990.28
2018-09-21T11:39:23.572Z,99973.77
2018-09-21T11:41:53.465Z,99978.78
2018-09-21T11:44:22.191Z,99977.17
2018-09-21T11:46:50.555Z,99973.73
2018-09-21T11:49:18.833Z,99976.92
2018-09-21T11:51:47.056Z,99970.42
2018-09-21T11:54:15.221Z,99974.41
2018-09-21T11:56:43.480Z,99964.50
2018-09-21T11:59:12.637Z,99969.31
2018-09-21T12:01:40.919Z,99970.91
2018-09-21T12:04:09.083Z,99973.80
2018-09-21T12:06:37.872Z,99970.75
2018-09-21T12:09:07.015Z,99954.56
2018-09-21T12:11:35.411Z,99948.80
2018-09-21T12:14:03.972Z,99953.34
2018-09-21T12:16:32.151Z,99956.21
2018-09-21T12:19:00.336Z,99945.61
2018-09-21T12:21:28.730Z,99943.72
2018-09-21T12:23:57.018Z,99939.11
2018-09-21T12:26:25.347Z,99930.89
2018-09-21T12:28:53.485Z,99935.80
2018-09-21T12:31:21.747Z,99940.70
2018-09-21T12:33:50.121Z,99938.48
2018-09-21T12:36:18.452Z,99934.97
2018-09-21T12:38:46.653Z,99939.19
2018-09-21T12:41:15.290Z,99919.77
2018-09-21T12:43:43.579Z,99917.53
2018-09-21T12:46:27.270Z,99915.90
2018-09-21T12:48:58.604Z,99918.66
2018-09-21T12:51:29.405Z,99917.30
2018-09-21T12:53:58.475Z,99918.13
2018-09-21T12:56:27.127Z,99913.37
2018-09-21T12:58:55.406Z,99908.36
2018-09-21T13:01:23.689Z,99904.42
2018-09-21T13:03:52.624Z,99908.17
2018-09-21T13:06:21.113Z,99911.91
2018-09-21T13:08:49.242Z,99913.17
2018-09-21T13:11:17.440Z,99902.65
2018-09-21T13:13:46.295Z,99905.22
2018-09-21T13:16:14.518Z,99909.34
2018-09-21T13:18:43.001Z,99916.84
2018-09-21T13:21:11.236Z,99909.23
2018-09-21T13:23:39.696Z,99903.95
2018-09-21T13:26:07.971Z,99900.31
2018-09-21T13:28:36.377Z,99899.27
2018-09-21T13:31:04.917Z,99898.00
2018-09-21T13:33:33.113Z,99890.83
2018-09-21T13:36:01.296Z,99877.78
2018-09-21T13:38:29.618Z,99885.11
2018-09-21T13:40:57.913Z,99881.70
2018-09-21T13:43:26.170Z,99879.98
2018-09-21T13:45:54.461Z,99886.28
2018-09-21T13:48:23.559Z,99883.38
2018-09-21T13:50:52.789Z,99868.55
2018-09-21T13:53:20.970Z,99880.03
2018-09-21T13:55:49.856Z,99879.17
2018-09-21T13:58:18.646Z,99870.13
2018-09-21T14:00:47.149Z,99870.30
2018-09-21T14:03:16.213Z,99875.50
2018-09-21T14:05:44.407Z,99871.26
2018-09-21T14:08:12.709Z,99866.11
2018-09-21T14:10:40.846Z,99872.36
2018-09-21T14:13:09.058Z,99865.61
2018-09-21T14:15:37.241Z,99853.42
2018-09-21T14:18:05.546Z,99849.89
2018-09-21T14:20:33.815Z,99860.05
2018-09-21T14:23:02.125Z,99866.97
2018-09-21T14:25:30.352Z,99867.30
2018-09-21T14:27:58.640Z,99870.97
2018-09-21T14:30:26.894Z,99871.59
2018-09-21T14:32:55.116Z,99863.59
2018-09-21T14:35:23.307Z,99862.06
2018-09-21T14:37:51.585Z,99859.02
2018-09-21T14:40:19.984Z,99862.38
2018-09-21T14:42:48.539Z,99868.73
2018-09-21T14:45:16.741Z,99860.34
2018-09-21T14:47:44.955Z,99986.39
2018-09-21T14:50:13.828Z,100018.68
2018-09-21T14:52:42.008Z,100058.23
2018-09-21T14:55:10.227Z,100067.80
2018-09-21T14:57:38.517Z,100093.41
2018-09-21T15:00:07.036Z,100119.83
2018-09-21T15:02:35.264Z,100140.12
2018-09-21T15:05:03.629Z,100150.84
2018-09-21T15:07:31.867Z,100162.92
2018-09-21T15:10:00.029Z,100199.02
2018-09-21T15:12:28.239Z,100221.70
2018-09-21T15:14:56.383Z,100243.83
2018-09-21T15:17:24.629Z,100258.71
2018-09-21T15:19:52.960Z,100269.01
2018-09-21T15:22:21.141Z,100272.95
2018-09-21T15:24:53.608Z,100276.00
2018-09-21T15:27:21.789Z,100269.42
2018-09-21T15:29:50.138Z,100276.03
2018-09-21T15:32:18.362Z,100243.72
2018-09-21T15:34:46.636Z,100266.05
2018-09-21T15:37:15.537Z,100280.92
2018-09-21T15:39:43.673Z,100286.16
2018-09-21T15:42:11.891Z,100292.30
2018-09-21T15:44:40.176Z,100286.59
2018-09-21T15:47:08.480Z,100271.73
2018-09-21T15:49:36.704Z,100285.30
2018-09-21T15:52:05.636Z,100292.73
2018-09-21T15:54:33.845Z,100276.53
2018-09-21T15:57:02.017Z,100280.05
2018-09-21T15:59:31.195Z,100298.39
2018-09-21T16:01:59.429Z,100296.22
2018-09-21T16:04:27.823Z,100282.16
2018-09-21T16:06:56.099Z,100288.69
2018-09-21T16:09:24.827Z,100279.89
2018-09-21T16:11:53.162Z,100286.84
2018-09-21T16:14:21.419Z,100302.44
2018-09-21T16:16:49.559Z,100300.67
2018-09-21T16:19:17.939Z,100302.89
2018-09-21T16:21:46.613Z,100316.42
2018-09-21T16:24:14.994Z,100308.23
2018-09-21T16:26:43.114Z,100339.20
2018-09-21T16:29:12.357Z,100355.28
2018-09-21T16:31:47.299Z,100349.36
2018-09-21T16:34:15.532Z,100342.31
2018-09-21T16:36:44.060Z,100349.39
2018-09-21T16:39:12.765Z,100340.54
2018-09-21T16:41:41.211Z,100346.22
2018-09-21T16:44:09.866Z,100345.33
2018-09-21T16:46:38.060Z,100345.34
2018-09-21T16:49:06.332Z,100338.36
2018-09-21T16:51:37.589Z,100344.09
2018-09-21T16:54:10.868Z,100344.61
2018-09-21T16:56:41.915Z,100360.38
2018-09-21T16:59:10.794Z,100338.58
2018-09-21T17:01:43.381Z,100319.21
2018-09-21T17:04:11.592Z,100316.17
2018-09-21T17:06:39.814Z,100317.05
2018-09-21T17:09:09.935Z,100336.72
2018-09-21T17:11:38.371Z,100342.41
2018-09-21T17:14:06.973Z,100357.69
2018-09-21T17:16:35.165Z,100337.13
2018-09-21T17:19:03.478Z,100341.63
2018-09-21T17:21:42.939Z,100349.56
2018-09-21T17:24:15.238Z,100364.90
2018-09-21T17:26:43.521Z,100373.24
2018-09-21T17:29:11.713Z,100371.50
2018-09-21T17:31:40.030Z,100395.15
2018-09-21T17:34:08.199Z,100386.89
2018-09-21T17:36:36.921Z,100398.29
2018-09-21T17:39:07.971Z,100410.11
2018-09-21T17:44:31.103Z,100422.25
2018-09-21T17:47:01.238Z,100434.50
2018-09-21T17:49:29.961Z,100437.84
2018-09-21T17:51:58.202Z,100437.03
2018-09-21T17:54:28.681Z,100460.21
2018-09-21T17:56:56.838Z,100475.59
2018-09-21T17:59:25.075Z,100490.32
2018-09-21T18:01:53.315Z,100501.80
2018-09-21T18:04:21.555Z,100497.44
2018-09-21T18:06:51.759Z,100486.40
2018-09-21T18:09:21.121Z,100485.99
2018-09-21T18:11:49.524Z,100485.98
2018-09-21T18:14:17.731Z,100479.84
2018-09-21T18:16:46.193Z,100459.74
2018-09-21T18:19:14.471Z,100442.28
2018-09-21T18:21:42.710Z,100433.14
2018-09-21T18:24:11.903Z,100406.50
2018-09-21T18:26:40.437Z,100420.45
2018-09-21T18:29:08.641Z,100424.41
2018-09-21T18:31:38.009Z,100431.06
2018-09-21T18:34:06.193Z,100461.27
2018-09-21T18:36:34.469Z,100472.16
2018-09-21T18:39:02.922Z,100480.88
2018-09-21T18:41:35.120Z,100489.64
2018-09-21T18:44:03.731Z,100503.59
2018-09-21T18:46:32.112Z,100508.89
2018-09-21T18:49:00.405Z,100522.83
2018-09-21T18:51:28.835Z,100529.80
2018-09-21T18:53:57.201Z,100536.41
2018-09-21T18:56:25.549Z,100545.63
2018-09-21T18:58:53.773Z,100563.05
2018-09-21T19:01:21.981Z,100573.12
2018-09-21T19:03:50.320Z,100573.14
2018-09-21T19:06:18.573Z,100569.13
2018-09-21T19:08:47.297Z,100562.94
2018-09-21T19:11:15.563Z,100559.06
2018-09-21T19:13:43.792Z,100558.66
2018-09-21T19:16:12.086Z,100566.16
2018-09-21T19:18:40.305Z,100590.92
2018-09-21T19:21:08.572Z,100602.30
2018-09-21T19:23:37.038Z,100607.23
2018-09-21T19:26:05.427Z,100609.36
2018-09-21T19:28:33.817Z,100612.91
2018-09-21T19:31:02.026Z,100614.93
2018-09-21T19:33:30.330Z,100623.31
2018-09-21T19:36:00.767Z,100617.99
2018-09-21T19:38:29.176Z,100616.21
2018-09-21T19:40:57.463Z,100622.36
2018-09-21T19:43:25.696Z,100626.69
2018-09-21T19:45:54.019Z,100637.59
2018-09-21T19:48:22.365Z,100640.16
2018-09-21T19:50:50.479Z,100640.70
2018-09-21T19:53:18.679Z,100657.26
2018-09-21T19:55:46.899Z,100650.76
2018-09-21T19:58:15.152Z,100663.91
2018-09-21T20:00:43.371Z,100667.42
2018-09-21T20:03:11.614Z,100664.89
2018-09-21T20:05:40.368Z,100665.98
2018-09-21T20:08:08.580Z,100672.73
2018-09-21T20:10:36.793Z,100683.50
2018-09-21T20:13:05.010Z,100677.34
2018-09-21T20:15:36.220Z,100686.82
2018-09-21T20:18:04.491Z,100692.14
2018-09-21T20:20:35.236Z,100698.36
2018-09-21T20:23:05.248Z,100710.05
2018-09-21T20:25:33.565Z,100715.73
2018-09-21T20:28:01.776Z,100727.36
2018-09-21T20:30:35.495Z,100733.17
2018-09-21T20:33:10.557Z,100737.72
2018-09-21T20:35:40.494Z,100732.92
2018-09-21T20:38:08.647Z,100740.26
2018-09-21T20:40:36.867Z,100747.49
2018-09-21T20:43:05.065Z,100751.92
2018-09-21T20:45:33.245Z,100759.31
2018-09-21T20:48:01.464Z,100759.69
2018-09-21T20:50:29.770Z,100760.45
2018-09-21T20:52:58.470Z,100763.45
2018-09-21T20:55:26.659Z,100766.10
2018-09-21T20:57:54.952Z,100764.02
2018-09-21T21:00:23.256Z,100764.76
2018-09-21T21:02:51.478Z,100764.92
2018-09-21T21:05:19.963Z,100774.30
2018-09-21T21:07:48.137Z,100774.30
2018-09-21T21:10:16.364Z,100779.02
2018-09-21T21:12:44.644Z,100777.17
2018-09-21T21:15:12.850Z,100785.43
2018-09-21T21:17:41.921Z,100787.17
2018-09-21T21:20:10.261Z,100785.79
2018-09-21T21:22:38.414Z,100787.50
2018-09-21T21:25:06.774Z,100782.23
2018-09-21T21:27:35.136Z,100782.55
2018-09-21T21:30:03.352Z,100784.26
2018-09-21T21:32:31.676Z,100785.61
2018-09-21T21:35:00.027Z,100799.89
2018-09-21T21:37:28.336Z,100800.95
2018-09-21T21:39:56.531Z,100810.36
2018-09-21T21:42:24.696Z,100817.56
2018-09-21T21:44:59.570Z,100825.34
2018-09-21T21:47:27.792Z,100829.86
2018-09-21T21:49:56.014Z,100835.13
2018-09-21T21:52:24.238Z,100834.34
2018-09-21T21:54:52.441Z,100831.20
2018-09-21T21:57:20.799Z,100839.18
2018-09-21T21:59:49.170Z,100843.81
2018-09-21T22:02:17.380Z,100846.79
2018-09-21T22:04:45.575Z,100844.77
2018-09-21T22:07:13.752Z,100834.70
2018-09-21T22:09:42.071Z,100840.72
2018-09-21T22:12:15.778Z,100828.74
2018-09-21T22:14:44.656Z,100830.84
2018-09-21T22:17:12.880Z,100837.16
2018-09-21T22:19:41.046Z,100852.42
2018-09-21T22:22:09.192Z,100849.02
2018-09-21T22:24:37.387Z,100852.07
2018-09-21T22:27:05.700Z,100845.45
2018-09-21T22:29:33.847Z,100858.25
2018-09-21T22:32:02.046Z,100858.61
2018-09-21T22:34:30.229Z,100857.73
2018-09-21T22:36:58.572Z,100857.04
2018-09-21T22:39:27.360Z,100855.99
2018-09-21T22:41:55.543Z,100859.92
2018-09-21T22:44:23.808Z,100858.56
2018-09-21T22:46:52.000Z,100858.28
2018-09-21T22:49:22.645Z,100857.17
2018-09-21T22:51:51.103Z,100857.02
2018-09-21T22:54:19.276Z,100862.53
2018-09-21T22:56:47.448Z,100863.01
2018-09-21T22:59:15.733Z,100863.52
2018-09-21T23:01:43.908Z,100864.09
2018-09-21T23:04:12.160Z,100871.70
2018-09-21T23:06:40.415Z,100878.03
2018-09-21T23:09:10.492Z,100879.97
2018-09-21T23:11:38.874Z,100885.73
2018-09-21T23:14:07.096Z,100889.27
2018-09-21T23:16:35.320Z,100883.75
2018-09-21T23:19:03.582Z,100893.56
2018-09-21T23:21:32.667Z,100904.19
2018-09-21T23:24:00.965Z,100904.94
2018-09-21T23:26:29.164Z,100898.16
2018-09-21T23:28:57.476Z,100900.69
2018-09-21T23:31:25.904Z,100897.06
2018-09-21T23:33:54.052Z,100901.95
2018-09-21T23:36:22.635Z,100906.79
2018-09-21T23:38:51.253Z,100896.47
2018-09-21T23:41:19.464Z,100894.10
2018-09-21T23:43:47.732Z,100892.16
2018-09-21T23:46:16.026Z,100895.69
2018-09-21T23:48:44.234Z,100896.12
2018-09-21T23:51:12.476Z,100898.88
2018-09-21T23:53:40.902Z,100898.40
2018-09-21T23:56:09.608Z,100900.19
2018-09-21T23:58:38.265Z,100904.14
